Terminal Aerodrome Forecast
Issued by NWS

Home | Current Version | Previous Version | Text Only | Print | Product List | Glossary On
Versions: 1 2 3 4 5 6 7 8 9 10 11 12 13 14 15 16
611
FTUS44 KMAF 291723
TAFCNM
TAF
KCNM 291723Z 2918/3018 06007KT P6SM BKN050 BKN110
      TEMPO 2921/3001 6SM TSRA BKN030CB
     FM300100 35006KT P6SM BKN040 BKN120
      TEMPO 3001/3005 4SM TSRA BR BKN020CB
     FM300500 36006KT P6SM BKN040
      TEMPO 3005/3009 4SM TSRA BR BKN020CB
     FM300900 36006KT P6SM BKN030
      TEMPO 3009/3012 4SM TSRA BR BKN020CB=

USA.gov is the U.S. government's official web portal to all federal, state and local government web resources and services.